KGLR

Details ICAO KGLR
Name GAYLORD RGNL
Region United States
Timezone America/Detroit (UTC-5.0)
Plans Departing 1
Arriving 4
Stats Elevation 1,328 ft / 405 m (AMSL)
Location 45.013007° -84.703163°
Runways 2
Magnetic Variation 6.873° W
Sunrise 2017-12-12 13:09:31 UTC / 2017-12-12 08:09:31 Local
Sunset 2017-12-12 21:58:39 UTC / 2017-12-12 16:58:39 Local
Advertisement - Login to hide

Runways

ID Width Length Bearing (true) Bearing (mag) Surface Threshold Offset Overrun Length
09 150 ft / 46 m 6,562 ft / 2,000 m 90.12° 96.99° Asphalt 0 ft / 0 m 0 ft / 0 m
18 75 ft / 23 m 3,002 ft / 915 m 180.11° 186.98° Asphalt 0 ft / 0 m 0 ft / 0 m
27 150 ft / 46 m 6,562 ft / 2,000 m 270.13° 277.00° Asphalt 0 ft / 0 m 0 ft / 0 m
36 75 ft / 23 m 3,002 ft / 915 m 0.11° 6.98° Asphalt 0 ft / 0 m 0 ft / 0 m

Map

Weather


0- 5 10 15 20 25 30 35+ Temperature / ° C

Clouds and Precipitation
Forecast for 2017-12-12 06:00 UTC. Updated 2 hours ago

Ground ~20,000 ft ~40,000 ft Winds

METAR

KGLR 120642Z AUTO 32007G22KT 280V350 1 1/4SM -SN OVC017 M08/M12 A2969 RMK AO2 SNB0555 P0000 T10831117

TAF

Not found

Frequencies

Recorded 118.37 MHz ASOS
Unicom 122.80 MHz CTAF/UNICOM
Warning: Do not use this data for real-world aviation or navigation. No guarantee of current accuracy is given.